Time;durP1;ratioP1;P1;durP2;ratioP2;P2;SDS_P1;SDS_P2;PMS_P1;PMS_P2;Temp;Humidity;BMP_temperature;BMP_pressure;BME280_temperature;BME280_humidity;BME280_pressure;Samples;Min_cycle;Max_cycle;Signal;HPM_P1;HPM_P2
2022/11/04 00:01:21;;;;;;;14.82;13.13;;;11.40;99.90;;;;;;4992256;28;20065;-78
2022/11/04 00:03:46;;;;;;;20.90;14.25;;;11.40;99.90;;;;;;4999699;28;20033;-78
2022/11/04 00:06:12;;;;;;;17.13;13.57;;;11.40;99.90;;;;;;4996548;28;20073;-78
2022/11/04 00:08:38;;;;;;;17.00;13.82;;;11.40;99.90;;;;;;4992971;28;20033;-78
2022/11/04 00:13:48;;;;;;;17.63;13.60;;;11.40;99.90;;;;;;4988645;28;20522;-78
2022/11/04 00:18:59;;;;;;;15.48;12.93;;;11.40;99.90;;;;;;4993504;28;20057;-78
2022/11/04 00:29:43;;;;;;;9.02;7.07;;;11.30;99.90;;;;;;4993334;28;20125;-78
2022/11/04 00:34:53;;;;;;;7.07;5.07;;;11.20;99.90;;;;;;4991291;28;20038;-78
2022/11/04 00:37:19;;;;;;;6.00;4.90;;;11.10;99.90;;;;;;4993407;28;20396;-78
2022/11/04 00:39:44;;;;;;;7.40;4.97;;;11.10;99.90;;;;;;4993642;28;20096;-78
2022/11/04 00:42:10;;;;;;;6.03;4.80;;;11.00;99.90;;;;;;4993748;28;20033;-78
2022/11/04 00:44:35;;;;;;;6.55;4.20;;;11.00;99.90;;;;;;4993642;28;20446;-78
2022/11/04 00:47:01;;;;;;;4.90;2.83;;;11.00;99.90;;;;;;4995765;28;20046;-78
2022/11/04 00:49:26;;;;;;;4.57;2.63;;;10.90;99.90;;;;;;4997101;28;20096;-79
2022/11/04 00:51:52;;;;;;;3.00;2.40;;;10.90;99.90;;;;;;4997490;28;20041;-78
2022/11/04 00:54:17;;;;;;;4.20;2.17;;;10.80;99.90;;;;;;4997755;28;20128;-78
2022/11/04 00:56:43;;;;;;;3.05;1.92;;;10.80;99.90;;;;;;4997447;28;20042;-79
2022/11/04 00:59:09;;;;;;;3.40;1.52;;;10.70;99.90;;;;;;4994952;28;20033;-78
2022/11/04 01:01:35;;;;;;;2.30;1.40;;;10.70;99.90;;;;;;5005447;28;20092;-79
2022/11/04 01:04:00;;;;;;;3.55;1.40;;;10.70;99.90;;;;;;4995673;28;20038;-78
2022/11/04 01:06:26;;;;;;;1.30;0.80;;;10.60;99.90;;;;;;4997408;28;20117;-78
2022/11/04 01:09:00;;;;;;;3.08;0.80;;;10.60;99.90;;;;;;4979189;28;20045;-78
2022/11/04 01:11:28;;;;;;;3.92;1.35;;;10.60;99.90;;;;;;4994901;28;20068;-78
2022/11/04 01:13:54;;;;;;;1.17;0.60;;;10.60;99.90;;;;;;4996962;28;20041;-79
2022/11/04 01:16:21;;;;;;;2.33;0.68;;;10.50;99.90;;;;;;4996402;28;20054;-78
2022/11/04 01:18:46;;;;;;;2.35;0.60;;;10.50;99.90;;;;;;4995850;28;20096;-78
2022/11/04 01:21:13;;;;;;;1.00;0.50;;;10.50;99.90;;;;;;4996851;28;20096;-79
2022/11/04 01:23:40;;;;;;;2.30;0.60;;;10.50;99.90;;;;;;4995987;28;20038;-78
2022/11/04 01:26:07;;;;;;;1.88;0.60;;;10.50;99.90;;;;;;4995996;28;20045;-79
2022/11/04 01:28:33;;;;;;;2.70;0.50;;;10.50;99.90;;;;;;4980119;28;20048;-78
2022/11/04 01:30:59;;;;;;;1.05;0.50;;;10.40;99.90;;;;;;4996853;28;20038;-78
2022/11/04 01:33:24;;;;;;;2.92;0.50;;;10.40;99.90;;;;;;4995426;28;20056;-78
2022/11/04 01:35:50;;;;;;;2.65;0.60;;;10.50;99.90;;;;;;4994249;28;20128;-78
2022/11/04 01:38:16;;;;;;;2.15;0.45;;;10.50;99.90;;;;;;4994592;28;20074;-78
2022/11/04 01:40:42;;;;;;;3.38;0.70;;;10.50;99.90;;;;;;4980534;28;20723;-78
2022/11/04 01:43:19;;;;;;;2.83;0.43;;;10.50;99.90;;;;;;4995547;28;20030;-78
2022/11/04 01:45:58;;;;;;;2.22;0.80;;;10.50;99.90;;;;;;4996300;28;20499;-79
2022/11/04 01:48:29;;;;;;;0.90;0.50;;;10.50;99.90;;;;;;4979887;28;20105;-78
2022/11/04 01:50:55;;;;;;;2.75;0.45;;;10.50;99.90;;;;;;4996410;28;20042;-79
2022/11/04 01:53:26;;;;;;;1.92;0.50;;;10.50;99.90;;;;;;4995686;28;20105;-80
2022/11/04 01:55:55;;;;;;;1.55;0.40;;;10.50;99.90;;;;;;4998658;28;20466;-78
2022/11/04 01:58:24;;;;;;;3.92;0.60;;;10.50;99.90;;;;;;4994054;28;20041;-79
2022/11/04 02:00:50;;;;;;;5.60;0.73;;;10.50;99.90;;;;;;4995640;28;20081;-78
2022/11/04 02:03:20;;;;;;;1.98;0.60;;;10.50;99.90;;;;;;4994719;28;20038;-78
2022/11/04 02:05:47;;;;;;;3.85;0.52;;;10.50;99.90;;;;;;4994612;28;20044;-78
2022/11/04 02:08:15;;;;;;;3.20;0.60;;;10.50;99.90;;;;;;4995557;28;20487;-78
2022/11/04 02:10:48;;;;;;;3.22;0.55;;;10.50;99.90;;;;;;4996191;28;20053;-78
2022/11/04 02:13:14;;;;;;;2.00;0.40;;;10.50;99.90;;;;;;4971148;28;20052;-79
2022/11/04 02:16:05;;;;;;;5.07;0.50;;;10.50;99.90;;;;;;4995071;28;20034;-79
2022/11/04 02:18:54;;;;;;;6.78;0.82;;;10.50;99.90;;;;;;4987594;28;20503;-78
2022/11/04 02:21:31;;;;;;;4.85;0.80;;;10.50;99.90;;;;;;4995853;28;20037;-78
2022/11/04 02:24:37;;;;;;;5.20;0.55;;;10.50;99.90;;;;;;4995018;28;20042;-78
2022/11/04 02:27:12;;;;;;;2.95;0.60;;;10.50;99.90;;;;;;5008418;28;20038;-78
2022/11/04 02:29:55;;;;;;;9.82;0.82;;;10.40;99.90;;;;;;4988805;28;20107;-78
2022/11/04 02:32:43;;;;;;;3.70;0.50;;;10.40;99.90;;;;;;4994005;28;20403;-77
2022/11/04 02:35:27;;;;;;;4.13;0.70;;;10.40;99.90;;;;;;4994909;28;20042;-78
2022/11/04 02:38:01;;;;;;;3.20;0.57;;;10.30;99.90;;;;;;4994341;28;20062;-78
2022/11/04 02:40:53;;;;;;;4.93;0.63;;;10.40;99.90;;;;;;4995513;28;20061;-77
2022/11/04 02:43:44;;;;;;;7.13;0.80;;;10.40;99.90;;;;;;4994835;28;20053;-77
2022/11/04 02:46:24;;;;;;;6.28;0.80;;;10.30;99.90;;;;;;4993729;28;20045;-78
2022/11/04 02:49:12;;;;;;;5.03;0.80;;;10.40;99.90;;;;;;4995135;28;20072;-78
2022/11/04 02:51:51;;;;;;;2.97;0.65;;;10.30;99.90;;;;;;4986172;28;20483;-78
2022/11/04 02:54:24;;;;;;;2.72;0.73;;;10.30;99.90;;;;;;4989126;28;20439;-77
2022/11/04 02:56:53;;;;;;;4.63;0.68;;;10.30;99.90;;;;;;4979216;28;20034;-77
2022/11/04 02:59:34;;;;;;;5.68;0.60;;;10.30;99.90;;;;;;4993777;28;20034;-78
2022/11/04 03:02:04;;;;;;;4.80;0.77;;;10.30;99.90;;;;;;4994969;28;20030;-78
2022/11/04 03:04:36;;;;;;;4.00;0.63;;;10.30;99.90;;;;;;4993360;28;20038;-78
2022/11/04 03:07:03;;;;;;;2.72;0.73;;;10.30;99.90;;;;;;4993591;28;20048;-77
2022/11/04 03:09:31;;;;;;;3.25;0.57;;;10.30;99.90;;;;;;4992250;28;20050;-78
2022/11/04 03:12:02;;;;;;;4.97;0.80;;;10.30;99.90;;;;;;4989840;28;20045;-78
2022/11/04 03:14:40;;;;;;;4.80;1.02;;;10.30;99.90;;;;;;4994124;28;20165;-78
2022/11/04 03:17:19;;;;;;;3.45;0.70;;;10.30;99.90;;;;;;4995105;28;20069;-77
2022/11/04 03:19:56;;;;;;;5.28;0.88;;;10.30;99.90;;;;;;4994072;28;20495;-77
2022/11/04 03:22:24;;;;;;;4.47;0.80;;;10.30;99.90;;;;;;4994825;28;20424;-77
2022/11/04 03:24:51;;;;;;;2.65;0.60;;;10.30;99.90;;;;;;4994704;28;20034;-78
2022/11/04 03:27:58;;;;;;;3.28;0.75;;;10.30;99.90;;;;;;4977754;28;20042;-77
2022/11/04 03:30:24;;;;;;;6.30;0.88;;;10.30;99.90;;;;;;4993125;28;20284;-78
2022/11/04 03:33:24;;;;;;;2.75;0.70;;;10.30;99.90;;;;;;4994273;28;20084;-78
2022/11/04 03:35:49;;;;;;;3.28;0.90;;;10.30;99.90;;;;;;4994043;28;20122;-78
2022/11/04 03:38:15;;;;;;;3.42;0.80;;;10.30;99.90;;;;;;4992367;28;20045;-78
2022/11/04 03:40:41;;;;;;;6.13;0.93;;;10.30;99.90;;;;;;4993652;28;20057;-78
2022/11/04 03:43:22;;;;;;;5.38;0.70;;;10.30;99.90;;;;;;4994370;28;20473;-78
2022/11/04 03:45:49;;;;;;;2.53;0.82;;;10.30;99.90;;;;;;4993872;28;20582;-78
2022/11/04 03:48:15;;;;;;;3.60;0.90;;;10.30;99.90;;;;;;4992863;28;20123;-78
2022/11/04 03:50:43;;;;;;;8.75;0.90;;;10.30;99.90;;;;;;4993633;28;20037;-78
2022/11/04 03:53:10;;;;;;;5.15;0.85;;;10.30;99.90;;;;;;4994291;28;20045;-78
2022/11/04 03:55:38;;;;;;;1.85;0.70;;;10.30;99.90;;;;;;4994172;28;20041;-78
2022/11/04 03:58:15;;;;;;;4.00;0.93;;;10.40;99.90;;;;;;4991587;28;20081;-78
2022/11/04 04:00:50;;;;;;;3.40;0.80;;;10.30;99.90;;;;;;5009768;28;20087;-78
2022/11/04 04:03:32;;;;;;;4.97;0.98;;;10.30;99.90;;;;;;4994301;28;20042;-78
2022/11/04 04:06:14;;;;;;;4.20;0.70;;;10.40;99.90;;;;;;4993704;28;20095;-78
2022/11/04 04:08:52;;;;;;;5.35;1.17;;;10.30;99.90;;;;;;4995410;28;20045;-78
2022/11/04 04:11:23;;;;;;;3.30;1.20;;;10.40;99.90;;;;;;4994042;28;20074;-78
2022/11/04 04:14:02;;;;;;;4.32;1.30;;;10.40;99.90;;;;;;4992690;28;20045;-79
2022/11/04 04:16:40;;;;;;;7.53;1.30;;;10.40;99.90;;;;;;4977582;28;20045;-78
2022/11/04 04:19:35;;;;;;;6.07;1.27;;;10.40;99.90;;;;;;4992927;28;20050;-79
2022/11/04 04:22:24;;;;;;;2.97;1.20;;;10.40;99.90;;;;;;4981581;28;20100;-78
2022/11/04 04:27:39;;;;;;;5.93;1.08;;;10.30;99.90;;;;;;4985832;28;20431;-78
2022/11/04 04:30:10;;;;;;;2.85;0.90;;;10.30;99.90;;;;;;4993827;28;20093;-79
2022/11/04 04:32:41;;;;;;;2.55;0.90;;;10.30;99.90;;;;;;4974679;28;20042;-77
2022/11/04 04:44:58;;;;;;;3.83;0.80;;;10.20;99.90;;;;;;4991606;28;20129;-78
2022/11/04 04:46:12;;;;;;;1.83;0.55;;;10.10;99.90;;;;;;4993689;28;20442;-78
2022/11/04 04:48:37;;;;;;;2.50;0.70;;;10.10;99.90;;;;;;4991585;28;20052;-78
2022/11/04 04:51:03;;;;;;;3.30;0.60;;;10.10;99.90;;;;;;4993694;28;20050;-78
2022/11/04 04:53:29;;;;;;;1.63;0.50;;;10.00;99.90;;;;;;4992457;28;20042;-78
2022/11/04 04:55:54;;;;;;;2.50;0.40;;;10.00;99.90;;;;;;4993538;28;20133;-78
2022/11/04 04:58:20;;;;;;;1.60;0.47;;;10.00;99.90;;;;;;4992154;28;20091;-78
2022/11/04 05:00:45;;;;;;;1.58;0.50;;;10.00;99.90;;;;;;4993333;28;20116;-77
2022/11/04 05:03:11;;;;;;;3.42;0.70;;;10.00;99.90;;;;;;4993630;28;20487;-78
2022/11/04 05:05:36;;;;;;;1.52;0.50;;;9.90;99.90;;;;;;4991730;28;20172;-78
2022/11/04 05:08:06;;;;;;;2.50;0.60;;;9.90;99.90;;;;;;4991942;28;20045;-78
2022/11/04 05:10:32;;;;;;;4.55;0.50;;;9.90;99.90;;;;;;4993392;28;20037;-78
2022/11/04 05:15:44;;;;;;;3.30;0.57;;;9.80;99.90;;;;;;4974044;28;20058;-78
2022/11/04 05:18:09;;;;;;;2.92;0.65;;;9.70;99.90;;;;;;4984630;28;20029;-78
2022/11/04 05:20:37;;;;;;;2.55;0.43;;;9.70;99.90;;;;;;4991828;28;20062;-78
2022/11/04 05:23:02;;;;;;;2.83;0.50;;;9.70;99.90;;;;;;4993190;28;20096;-78
2022/11/04 05:25:28;;;;;;;4.10;0.60;;;9.70;99.90;;;;;;4988961;28;20042;-78
2022/11/04 05:27:57;;;;;;;2.47;0.40;;;9.70;99.90;;;;;;4992192;28;20436;-78
2022/11/04 05:30:23;;;;;;;2.05;0.65;;;9.70;99.90;;;;;;4992175;28;20505;-78
2022/11/04 05:32:48;;;;;;;1.00;0.50;;;9.70;99.90;;;;;;4993348;28;20041;-78
2022/11/04 05:35:14;;;;;;;1.17;0.35;;;9.60;99.90;;;;;;4994610;28;20049;-78
2022/11/04 05:37:39;;;;;;;2.90;0.65;;;9.60;99.90;;;;;;4996123;28;20037;-78
2022/11/04 05:40:05;;;;;;;1.13;0.40;;;9.60;99.90;;;;;;4996327;28;20669;-78
2022/11/04 05:42:31;;;;;;;2.40;0.40;;;9.60;99.90;;;;;;4996241;28;20105;-78
2022/11/04 05:44:56;;;;;;;3.42;0.50;;;9.60;99.90;;;;;;4996386;28;20101;-79
2022/11/04 05:47:22;;;;;;;2.53;0.43;;;9.60;99.90;;;;;;4993531;28;20049;-78
2022/11/04 05:49:47;;;;;;;1.77;0.47;;;9.50;99.90;;;;;;4995814;28;20045;-78
2022/11/04 05:52:13;;;;;;;4.20;0.50;;;9.60;99.90;;;;;;4980164;28;20088;-79
2022/11/04 05:54:38;;;;;;;2.78;0.45;;;9.50;99.90;;;;;;4994423;28;20088;-79
2022/11/04 05:57:04;;;;;;;1.85;0.47;;;9.50;99.90;;;;;;4994237;28;20453;-77
2022/11/04 05:59:30;;;;;;;3.55;1.10;;;9.50;99.90;;;;;;4993732;28;20558;-78
2022/11/04 06:01:55;;;;;;;3.30;0.68;;;9.50;99.90;;;;;;4995289;28;20037;-78
2022/11/04 06:04:20;;;;;;;4.15;0.95;;;9.50;99.90;;;;;;4995500;28;20136;-79
2022/11/04 06:06:46;;;;;;;1.40;0.60;;;9.40;99.90;;;;;;4996085;28;20068;-78
2022/11/04 06:09:12;;;;;;;1.70;0.40;;;9.40;99.90;;;;;;4994447;28;20092;-78
2022/11/04 06:11:38;;;;;;;5.43;0.70;;;9.30;99.90;;;;;;4995780;28;20124;-79
2022/11/04 06:14:04;;;;;;;4.07;0.80;;;9.30;99.90;;;;;;4995094;28;20029;-78
2022/11/04 06:16:30;;;;;;;4.82;0.73;;;9.20;99.90;;;;;;4994333;28;20578;-78
2022/11/04 06:18:55;;;;;;;3.28;0.70;;;9.20;99.90;;;;;;4993662;28;20510;-79
2022/11/04 06:21:27;;;;;;;2.50;0.70;;;9.20;99.90;;;;;;4992790;28;20450;-78
2022/11/04 06:23:57;;;;;;;5.70;0.80;;;9.30;99.90;;;;;;4978504;28;20068;-78
2022/11/04 06:26:27;;;;;;;8.10;1.77;;;9.30;99.90;;;;;;4995864;28;20032;-78
2022/11/04 06:28:53;;;;;;;2.75;0.88;;;9.30;99.90;;;;;;4994781;28;20396;-78
2022/11/04 06:31:19;;;;;;;2.97;0.90;;;9.30;99.90;;;;;;4992137;28;20046;-78
2022/11/04 06:33:45;;;;;;;3.25;0.90;;;9.20;99.90;;;;;;4995600;28;20069;-79
2022/11/04 06:36:14;;;;;;;3.25;1.13;;;9.20;99.90;;;;;;4994044;28;20118;-78
2022/11/04 06:38:40;;;;;;;4.63;1.05;;;9.20;99.90;;;;;;4992142;28;20080;-79
2022/11/04 06:41:09;;;;;;;2.88;1.02;;;9.20;99.90;;;;;;4993624;28;20492;-79
2022/11/04 06:43:35;;;;;;;4.10;1.10;;;9.20;99.90;;;;;;4976324;28;20042;-78
2022/11/04 06:46:01;;;;;;;6.38;1.20;;;9.20;99.90;;;;;;4992658;28;20080;-79
2022/11/04 06:48:29;;;;;;;4.75;1.10;;;9.20;99.90;;;;;;4993410;28;20164;-79
2022/11/04 06:50:56;;;;;;;5.43;1.30;;;9.10;99.90;;;;;;4993153;28;20033;-79
2022/11/04 06:53:22;;;;;;;3.03;1.05;;;9.10;99.90;;;;;;4994765;28;20050;-78
2022/11/04 06:55:47;;;;;;;4.90;1.40;;;9.10;99.90;;;;;;4994518;28;20049;-78
2022/11/04 06:58:13;;;;;;;2.97;1.15;;;9.10;99.90;;;;;;4992570;28;20415;-79
2022/11/04 07:00:38;;;;;;;4.30;1.20;;;9.10;99.90;;;;;;4993451;28;20050;-79
2022/11/04 07:03:04;;;;;;;2.58;1.20;;;9.00;99.90;;;;;;4994599;28;20042;-78
2022/11/04 07:05:32;;;;;;;2.35;1.05;;;9.00;99.90;;;;;;4994286;28;20125;-78
2022/11/04 07:07:57;;;;;;;5.40;1.30;;;9.00;99.90;;;;;;4993992;28;20038;-78
2022/11/04 07:10:23;;;;;;;2.55;1.10;;;9.00;99.90;;;;;;4976399;28;20046;-78
2022/11/04 07:12:49;;;;;;;9.18;1.50;;;9.00;99.90;;;;;;4978489;28;20042;-79
2022/11/04 07:15:14;;;;;;;5.68;1.20;;;9.00;99.90;;;;;;4974742;28;20153;-78
2022/11/04 07:17:40;;;;;;;3.17;1.30;;;9.00;99.90;;;;;;4977108;28;20049;-78
2022/11/04 07:20:06;;;;;;;3.35;1.63;;;8.90;99.90;;;;;;4974791;28;20042;-78
2022/11/04 07:22:31;;;;;;;6.55;1.55;;;9.00;99.90;;;;;;4990919;28;20126;-79
2022/11/04 07:24:57;;;;;;;1.35;1.00;;;9.00;99.90;;;;;;4974538;28;20046;-81
2022/11/04 07:27:22;;;;;;;4.07;1.15;;;9.00;99.90;;;;;;4974938;28;20034;-78
2022/11/04 07:29:48;;;;;;;3.28;1.33;;;9.00;99.90;;;;;;4990134;28;20048;-78
2022/11/04 07:32:13;;;;;;;3.33;1.38;;;9.00;99.90;;;;;;4994075;28;20073;-79
2022/11/04 07:34:39;;;;;;;4.72;1.60;;;9.00;99.90;;;;;;4992730;28;20464;-78
2022/11/04 07:37:05;;;;;;;4.10;1.33;;;9.00;99.90;;;;;;4994569;28;20084;-78
2022/11/04 07:39:30;;;;;;;3.90;1.20;;;9.00;99.90;;;;;;4994166;28;20045;-78
2022/11/04 07:41:56;;;;;;;3.58;1.10;;;9.00;99.90;;;;;;4978331;28;20395;-79
2022/11/04 07:44:22;;;;;;;5.35;1.10;;;9.00;99.90;;;;;;4994753;28;20396;-78
2022/11/04 07:46:48;;;;;;;3.20;1.30;;;9.00;99.90;;;;;;4994344;28;20048;-79
2022/11/04 07:49:13;;;;;;;3.65;1.15;;;9.00;99.90;;;;;;4993938;28;20045;-78
2022/11/04 07:51:39;;;;;;;2.83;1.13;;;9.00;99.90;;;;;;4994081;28;20068;-78
2022/11/04 07:54:04;;;;;;;4.18;1.20;;;9.10;99.90;;;;;;4993979;28;20038;-78
2022/11/04 07:56:30;;;;;;;3.20;1.17;;;9.10;99.90;;;;;;4992492;28;20471;-78
2022/11/04 07:58:56;;;;;;;2.42;1.00;;;9.10;99.90;;;;;;4992766;28;20546;-78
2022/11/04 08:01:22;;;;;;;3.90;1.13;;;9.10;99.90;;;;;;4994143;28;20045;-79
2022/11/04 08:03:49;;;;;;;4.45;1.13;;;9.20;99.90;;;;;;4994158;28;20408;-78
2022/11/04 08:06:16;;;;;;;2.75;1.30;;;9.20;99.90;;;;;;4994371;28;20047;-79
2022/11/04 08:08:42;;;;;;;4.75;1.50;;;9.20;99.90;;;;;;4992267;28;20148;-78
2022/11/04 08:11:14;;;;;;;4.05;1.55;;;9.30;99.90;;;;;;4994129;28;20077;-78
2022/11/04 08:13:41;;;;;;;3.50;1.15;;;9.30;99.90;;;;;;4994088;28;20562;-78
2022/11/04 08:16:11;;;;;;;5.57;1.50;;;9.40;99.90;;;;;;4977792;28;20086;-78
2022/11/04 08:18:36;;;;;;;4.63;1.30;;;9.50;99.90;;;;;;4993419;28;20046;-79
2022/11/04 08:21:03;;;;;;;2.78;1.20;;;9.50;99.90;;;;;;4994162;28;20041;-78
2022/11/04 08:23:29;;;;;;;2.90;1.17;;;9.50;99.90;;;;;;4993839;28;20030;-79
2022/11/04 08:25:55;;;;;;;4.43;1.60;;;9.60;99.90;;;;;;4991590;28;20521;-78
2022/11/04 08:28:20;;;;;;;3.83;1.48;;;9.70;99.90;;;;;;4983831;28;20042;-78
2022/11/04 08:31:01;;;;;;;4.03;1.45;;;9.70;99.90;;;;;;4993219;28;20514;-79
2022/11/04 08:33:27;;;;;;;4.35;1.45;;;9.70;99.90;;;;;;4993301;28;20042;-78
2022/11/04 08:35:54;;;;;;;2.83;1.13;;;9.70;99.90;;;;;;4993807;28;20048;-79
2022/11/04 08:38:20;;;;;;;4.65;1.23;;;9.70;99.90;;;;;;4993414;28;20042;-78
2022/11/04 08:40:46;;;;;;;3.83;1.30;;;9.80;99.90;;;;;;4977763;28;20041;-79
2022/11/04 08:43:11;;;;;;;2.97;1.20;;;9.80;99.90;;;;;;4993621;28;20045;-78
2022/11/04 08:45:45;;;;;;;3.88;1.75;;;9.90;99.90;;;;;;4993705;28;20082;-79
2022/11/04 08:48:12;;;;;;;2.53;1.20;;;10.00;99.90;;;;;;4989132;28;20037;-79
2022/11/04 08:50:38;;;;;;;5.43;1.30;;;10.00;99.90;;;;;;4993200;28;20046;-79
2022/11/04 08:53:04;;;;;;;3.75;0.90;;;10.10;99.90;;;;;;4993516;28;20128;-79
2022/11/04 08:55:31;;;;;;;2.83;1.20;;;10.20;99.90;;;;;;4992955;28;20055;-79
2022/11/04 08:57:58;;;;;;;4.82;1.20;;;10.20;99.90;;;;;;4976532;28;20384;-79
2022/11/04 09:00:23;;;;;;;6.40;1.33;;;10.20;99.90;;;;;;4993367;28;20030;-79
2022/11/04 09:02:49;;;;;;;3.88;1.17;;;10.30;99.90;;;;;;4993408;28;20065;-79
2022/11/04 09:05:15;;;;;;;5.95;1.20;;;10.30;99.90;;;;;;4993447;28;20092;-79
2022/11/04 09:07:41;;;;;;;5.03;1.38;;;10.40;99.90;;;;;;4995539;28;20087;-78
2022/11/04 09:10:08;;;;;;;4.80;1.60;;;10.40;99.90;;;;;;4997169;28;20084;-78
2022/11/04 09:12:34;;;;;;;4.20;1.00;;;10.40;99.90;;;;;;4996727;28;20038;-78
2022/11/04 09:15:00;;;;;;;1.67;0.98;;;10.50;99.90;;;;;;4997126;28;20414;-78
2022/11/04 09:17:26;;;;;;;2.00;0.90;;;10.50;99.90;;;;;;4980305;28;20049;-80
2022/11/04 09:19:51;;;;;;;3.97;0.98;;;10.60;99.90;;;;;;4996690;28;20073;-78
2022/11/04 09:22:17;;;;;;;1.85;0.85;;;10.60;99.90;;;;;;4996760;28;20048;-78
2022/11/04 09:24:43;;;;;;;5.00;1.40;;;10.60;99.90;;;;;;4996617;28;20072;-79
2022/11/04 09:27:09;;;;;;;1.83;0.68;;;10.60;99.90;;;;;;4995948;28;20138;-78
2022/11/04 09:29:35;;;;;;;2.95;0.85;;;10.70;99.90;;;;;;4996297;28;20042;-78
2022/11/04 09:32:02;;;;;;;3.45;1.10;;;10.70;99.90;;;;;;4996569;28;20038;-79
2022/11/04 09:34:28;;;;;;;1.83;0.90;;;10.70;99.90;;;;;;4996720;28;20415;-79
2022/11/04 09:36:55;;;;;;;6.55;1.25;;;10.80;99.90;;;;;;4979927;28;20072;-79
2022/11/04 09:39:21;;;;;;;4.60;1.15;;;10.90;99.90;;;;;;4996387;28;20042;-78
2022/11/04 09:42:00;;;;;;;2.58;1.13;;;10.90;99.90;;;;;;4980137;28;20499;-79
2022/11/04 09:45:02;;;;;;;4.68;1.10;;;11.00;99.90;;;;;;4996387;28;20113;-80
2022/11/04 09:47:31;;;;;;;3.47;1.13;;;11.10;99.90;;;;;;4979506;28;20052;-79
2022/11/04 09:49:59;;;;;;;2.92;0.93;;;11.10;99.90;;;;;;4996300;28;20082;-79
2022/11/04 09:52:27;;;;;;;6.53;1.05;;;11.20;99.90;;;;;;4996401;28;20333;-79
2022/11/04 09:55:21;;;;;;;5.90;1.10;;;11.30;99.90;;;;;;4996222;28;20038;-79
2022/11/04 09:57:57;;;;;;;3.45;1.02;;;11.30;99.90;;;;;;4995804;28;20100;-79
2022/11/04 10:00:23;;;;;;;3.63;1.00;;;11.40;99.90;;;;;;4995880;28;20030;-79
2022/11/04 10:03:14;;;;;;;4.00;1.10;;;11.50;99.90;;;;;;4995978;28;20072;-79
2022/11/04 10:05:57;;;;;;;8.25;1.10;;;11.60;99.90;;;;;;4996005;28;20034;-79
2022/11/04 10:08:35;;;;;;;3.28;1.10;;;11.60;99.90;;;;;;4982329;28;20034;-79
2022/11/04 10:11:19;;;;;;;3.47;1.05;;;11.70;99.90;;;;;;4995471;28;20073;-79
2022/11/04 10:13:54;;;;;;;1.85;0.93;;;11.80;99.90;;;;;;4996185;28;20038;-79
2022/11/04 10:16:40;;;;;;;2.92;0.90;;;11.90;99.90;;;;;;4995689;28;20045;-79
2022/11/04 10:19:30;;;;;;;4.00;1.02;;;12.00;99.90;;;;;;4994498;28;20458;-79
2022/11/04 10:22:07;;;;;;;4.05;1.05;;;12.00;99.90;;;;;;4996097;28;20437;-78
2022/11/04 10:25:08;;;;;;;5.05;1.08;;;12.10;99.90;;;;;;4994958;28;20451;-80
2022/11/04 10:27:37;;;;;;;4.70;1.15;;;12.10;99.90;;;;;;5007208;28;20046;-80
2022/11/04 10:30:16;;;;;;;5.25;0.88;;;12.20;99.90;;;;;;4988439;28;20042;-79
2022/11/04 10:33:09;;;;;;;4.50;0.85;;;12.20;99.90;;;;;;4995783;28;20122;-79
2022/11/04 10:35:45;;;;;;;6.18;0.90;;;12.20;99.90;;;;;;4994107;28;20049;-79
2022/11/04 10:38:21;;;;;;;3.92;0.93;;;12.30;99.90;;;;;;4990349;28;20538;-78
2022/11/04 10:40:50;;;;;;;3.75;1.00;;;12.30;99.90;;;;;;4995297;28;20033;-79
2022/11/04 10:43:27;;;;;;;6.65;1.10;;;12.30;99.90;;;;;;4995334;28;20034;-79
2022/11/04 10:46:15;;;;;;;4.60;0.90;;;12.30;99.90;;;;;;4981487;28;20042;-79
2022/11/04 10:48:56;;;;;;;7.82;1.75;;;12.30;99.90;;;;;;4994340;28;20056;-79
2022/11/04 10:51:23;;;;;;;4.45;1.20;;;12.30;99.90;;;;;;4994999;28;20045;-79
2022/11/04 10:53:58;;;;;;;4.75;1.05;;;12.40;99.90;;;;;;5012756;28;20053;-79
2022/11/04 10:56:42;;;;;;;5.68;1.05;;;12.60;99.90;;;;;;4994876;28;20037;-80
2022/11/04 10:59:25;;;;;;;7.30;1.10;;;12.70;99.90;;;;;;5012415;28;20053;-80
2022/11/04 11:01:59;;;;;;;3.05;0.95;;;12.80;99.90;;;;;;4995020;28;20049;-79
2022/11/04 11:04:28;;;;;;;6.68;0.90;;;13.00;99.90;;;;;;4994847;28;20034;-79
2022/11/04 11:06:55;;;;;;;4.53;1.00;;;13.20;99.90;;;;;;4994859;28;20049;-79
2022/11/04 11:09:28;;;;;;;4.28;0.90;;;13.20;99.90;;;;;;4994158;28;20050;-79
2022/11/04 11:11:57;;;;;;;5.00;0.90;;;13.10;99.90;;;;;;4994835;28;20067;-79
2022/11/04 11:14:31;;;;;;;4.82;1.20;;;13.10;99.90;;;;;;4994650;28;20038;-79
2022/11/04 11:17:33;;;;;;;5.78;0.90;;;12.90;99.90;;;;;;4993962;28;20042;-79
2022/11/04 11:20:19;;;;;;;4.18;0.77;;;13.00;99.90;;;;;;4988556;28;20038;-78
2022/11/04 11:22:47;;;;;;;4.28;1.08;;;13.10;99.90;;;;;;4974120;28;20042;-78
2022/11/04 11:25:32;;;;;;;4.18;0.70;;;13.20;99.90;;;;;;4990535;28;20038;-79
2022/11/04 11:27:59;;;;;;;4.55;0.77;;;13.20;99.90;;;;;;4992445;28;20049;-78
2022/11/04 11:30:31;;;;;;;6.10;1.10;;;13.30;99.90;;;;;;4993384;28;20056;-79
2022/11/04 11:33:00;;;;;;;4.90;1.05;;;13.50;99.90;;;;;;4993727;28;20049;-78
2022/11/04 11:35:33;;;;;;;3.55;0.95;;;13.60;99.90;;;;;;4993525;28;20045;-79
2022/11/04 11:38:02;;;;;;;4.65;0.93;;;13.70;99.90;;;;;;4993314;28;20707;-78
2022/11/04 11:40:33;;;;;;;5.22;1.13;;;13.60;99.90;;;;;;4993333;28;20053;-78
2022/11/04 11:43:00;;;;;;;5.97;0.88;;;13.50;99.90;;;;;;4994424;28;20038;-77
2022/11/04 11:45:27;;;;;;;5.97;1.05;;;13.20;99.90;;;;;;4994541;28;20403;-78
2022/11/04 11:47:55;;;;;;;3.65;0.80;;;13.00;99.90;;;;;;4994141;28;20056;-78
2022/11/04 11:50:29;;;;;;;4.65;0.90;;;12.80;99.90;;;;;;4993849;28;20120;-78
2022/11/04 11:53:17;;;;;;;5.00;1.80;;;12.60;99.90;;;;;;4994400;28;20068;-78
2022/11/04 11:55:50;;;;;;;2.55;1.15;;;12.50;99.90;;;;;;4994090;28;20057;-78
2022/11/04 11:58:31;;;;;;;2.88;0.85;;;12.60;99.90;;;;;;4993809;28;20057;-78
2022/11/04 12:01:04;;;;;;;2.15;0.50;;;12.70;99.90;;;;;;4994270;28;20048;-79
2022/11/04 12:03:39;;;;;;;1.73;0.50;;;12.70;99.90;;;;;;4993943;28;20092;-78
2022/11/04 12:06:34;;;;;;;2.58;0.60;;;12.60;99.90;;;;;;4994291;28;20074;-78
2022/11/04 12:09:07;;;;;;;3.92;0.63;;;12.30;99.90;;;;;;4993648;28;20056;-78
2022/11/04 12:11:48;;;;;;;2.20;0.50;;;12.10;99.90;;;;;;4994209;28;20455;-79
2022/11/04 12:15:01;;;;;;;5.15;0.60;;;12.00;99.90;;;;;;4993997;28;20048;-77
2022/11/04 12:17:45;;;;;;;1.98;0.60;;;11.90;99.90;;;;;;4993933;28;20053;-79
2022/11/04 12:20:20;;;;;;;;;;;11.70;99.90;;;;;;4994309;28;20096;-78
2022/11/04 12:23:03;;;;;;;1.20;0.43;;;11.60;99.90;;;;;;4994166;28;20334;-78
2022/11/04 12:25:49;;;;;;;2.37;0.60;;;11.60;99.90;;;;;;4992022;28;21298;-78
2022/11/04 12:28:44;;;;;;;3.72;0.68;;;11.60;99.90;;;;;;4968568;28;20129;-78
2022/11/04 12:31:31;;;;;;;6.68;0.70;;;11.70;99.90;;;;;;4987142;28;20072;-78
2022/11/04 12:34:20;;;;;;;2.85;0.50;;;11.70;99.90;;;;;;4977198;28;20050;-79
2022/11/04 12:37:05;;;;;;;2.20;0.65;;;11.80;99.90;;;;;;4994089;28;20380;-79
2022/11/04 12:39:43;;;;;;;4.25;0.77;;;11.80;99.90;;;;;;4977577;28;20507;-79
2022/11/04 12:42:30;;;;;;;2.72;0.90;;;12.00;99.90;;;;;;4995899;28;20080;-79
2022/11/04 12:45:17;;;;;;;2.53;0.70;;;12.10;99.90;;;;;;4981842;28;20128;-79
2022/11/04 12:47:44;;;;;;;2.45;0.73;;;12.00;99.90;;;;;;4997474;28;20034;-78
2022/11/04 12:50:41;;;;;;;2.58;0.68;;;12.00;99.90;;;;;;4997598;28;20045;-78
2022/11/04 12:53:27;;;;;;;4.25;0.65;;;12.00;99.90;;;;;;4994956;28;20042;-78
2022/11/04 12:56:00;;;;;;;1.67;0.52;;;11.90;99.90;;;;;;4996023;28;20053;-78
2022/11/04 12:59:03;;;;;;;3.47;0.80;;;11.80;99.90;;;;;;4977794;28;20050;-79
2022/11/04 13:01:45;;;;;;;2.22;0.60;;;11.80;99.90;;;;;;4996649;28;20121;-77
2022/11/04 13:04:15;;;;;;;2.95;0.60;;;11.70;99.90;;;;;;4980340;28;20041;-78
2022/11/04 13:07:02;;;;;;;3.42;0.88;;;11.60;99.90;;;;;;4997505;28;20451;-78
2022/11/04 13:09:53;;;;;;;3.67;0.63;;;11.60;99.90;;;;;;4995763;28;20548;-78
2022/11/04 13:12:31;;;;;;;4.07;0.88;;;11.80;99.90;;;;;;4996061;28;20038;-78
2022/11/04 13:15:03;;;;;;;2.33;0.88;;;11.80;99.90;;;;;;4996145;28;20065;-79
2022/11/04 13:17:33;;;;;;;4.20;1.35;;;11.90;99.90;;;;;;4975503;28;20038;-78
2022/11/04 13:20:26;;;;;;;6.30;0.90;;;11.90;99.90;;;;;;4995724;28;20030;-78
2022/11/04 13:22:56;;;;;;;5.00;1.20;;;12.00;99.90;;;;;;4989311;28;20446;-79
2022/11/04 13:25:35;;;;;;;5.68;1.02;;;12.00;99.90;;;;;;4988979;28;20497;-78
2022/11/04 13:28:02;;;;;;;6.68;1.10;;;12.00;99.90;;;;;;4980076;28;20041;-78
2022/11/04 13:30:51;;;;;;;5.32;1.13;;;12.00;99.90;;;;;;4996605;28;20503;-78
2022/11/04 13:33:29;;;;;;;4.93;1.30;;;12.10;99.90;;;;;;4996828;28;20096;-79
2022/11/04 13:36:07;;;;;;;4.43;1.15;;;12.10;99.90;;;;;;4996888;28;20041;-79
2022/11/04 13:38:41;;;;;;;4.95;1.00;;;12.20;99.90;;;;;;4994328;28;20056;-79
2022/11/04 13:41:51;;;;;;;9.07;1.50;;;12.20;99.90;;;;;;4995299;28;20046;-78
2022/11/04 13:44:27;;;;;;;5.70;1.02;;;12.20;99.90;;;;;;4996442;28;20614;-78
2022/11/04 13:46:57;;;;;;;3.47;1.10;;;12.20;99.90;;;;;;4996770;28;20038;-79